Time;durP1;ratioP1;P1;durP2;ratioP2;P2;SDS_P1;SDS_P2;PMS_P1;PMS_P2;Temp;Humidity;BMP_temperature;BMP_pressure;BME280_temperature;BME280_humidity;BME280_pressure;Samples;Min_cycle;Max_cycle;Signal;HPM_P1;HPM_P2
2023/01/29 00:01:36;;;;;;;22.55;20.60;;;7.00;99.90;;;;;;4942105;29;20034;-92
2023/01/29 00:04:03;;;;;;;25.08;22.58;;;6.90;99.90;;;;;;4941919;29;20110;-91
2023/01/29 00:06:31;;;;;;;23.98;21.42;;;6.90;99.90;;;;;;4942251;29;20039;-92
2023/01/29 00:09:01;;;;;;;23.55;21.38;;;6.80;99.90;;;;;;4942098;29;20035;-92
2023/01/29 00:11:31;;;;;;;23.10;21.00;;;6.70;99.90;;;;;;4942983;29;20433;-92
2023/01/29 00:14:01;;;;;;;23.23;21.13;;;6.60;99.90;;;;;;4944578;29;20027;-92
2023/01/29 00:16:28;;;;;;;23.17;20.88;;;6.50;99.90;;;;;;4941863;29;20046;-92
2023/01/29 00:18:55;;;;;;;22.33;20.33;;;6.40;99.90;;;;;;4942395;29;20035;-92
2023/01/29 00:25:41;;;;;;;21.88;19.77;;;6.10;99.90;;;;;;4812048;29;20131;-91
2023/01/29 00:32:00;;;;;;;23.67;19.88;;;6.20;99.90;;;;;;5136981;23;20054;-93
2023/01/29 00:34:38;;;;;;;21.67;19.48;;;6.20;99.90;;;;;;4945069;28;20027;-92
2023/01/29 00:37:12;;;;;;;21.17;19.17;;;6.10;99.90;;;;;;4945508;28;20034;-92
2023/01/29 00:39:39;;;;;;;20.33;18.50;;;6.00;99.90;;;;;;4945034;28;20023;-93
2023/01/29 00:44:57;;;;;;;20.05;18.27;;;6.20;99.90;;;;;;4960779;28;20413;-92
2023/01/29 00:47:34;;;;;;;19.47;17.77;;;6.30;99.90;;;;;;4945052;28;20041;-92
2023/01/29 00:50:25;;;;;;;19.63;17.73;;;6.30;99.90;;;;;;4945446;28;20033;-92
2023/01/29 00:53:08;;;;;;;;;;;;;;;;;;;;;
2023/01/29 00:55:38;;;;;;;19.58;17.77;;;6.50;99.90;;;;;;4961139;28;20030;-92
2023/01/29 00:58:07;;;;;;;19.77;18.08;;;6.50;99.90;;;;;;4945345;28;20026;-91
2023/01/29 01:00:34;;;;;;;19.35;17.90;;;6.60;99.90;;;;;;4944526;28;20122;-92
2023/01/29 01:03:07;;;;;;;20.27;18.58;;;6.60;99.90;;;;;;4944428;28;20031;-92
2023/01/29 01:05:34;;;;;;;20.85;19.15;;;6.60;99.90;;;;;;4946216;28;20038;-93
2023/01/29 01:08:00;;;;;;;20.08;18.50;;;6.60;99.90;;;;;;4945130;28;20019;-92
2023/01/29 01:10:30;;;;;;;20.70;18.70;;;6.60;99.90;;;;;;4944506;28;20117;-93
2023/01/29 01:13:00;;;;;;;20.98;19.00;;;6.60;99.90;;;;;;4944513;28;20030;-93
2023/01/29 01:15:36;;;;;;;20.48;18.90;;;6.60;99.90;;;;;;4944313;28;20496;-93
2023/01/29 06:39:20;;;;;;;13.20;11.40;;;6.50;99.90;;;;;;5736175;23;20481;-92
2023/01/29 07:04:34;;;;;;;19.42;17.83;;;8.00;99.90;;;;;;6085600;23;20105;-90
2023/01/29 07:11:08;;;;;;;19.98;18.48;;;8.40;99.90;;;;;;5645467;23;20574;-92
2023/01/29 07:13:37;;;;;;;21.08;19.35;;;8.60;99.90;;;;;;4901763;29;20545;-93
2023/01/29 07:16:08;;;;;;;21.23;19.52;;;8.70;99.90;;;;;;4899866;29;20052;-93
2023/01/29 07:18:36;;;;;;;22.30;20.52;;;8.70;99.90;;;;;;4885184;29;20514;-93
2023/01/29 07:21:06;;;;;;;22.75;20.73;;;8.80;99.90;;;;;;4901019;29;20036;-92
2023/01/29 07:23:34;;;;;;;22.77;20.80;;;9.00;99.90;;;;;;4900427;29;20042;-93
2023/01/29 07:26:02;;;;;;;22.50;20.60;;;9.10;99.90;;;;;;4902002;29;20119;-93
2023/01/29 07:28:29;;;;;;;21.77;19.98;;;9.40;99.90;;;;;;4900758;29;20054;-92
2023/01/29 07:30:59;;;;;;;22.33;20.58;;;9.50;99.90;;;;;;4900545;29;20044;-91
2023/01/29 07:33:26;;;;;;;22.63;20.92;;;9.50;99.90;;;;;;4904122;29;20487;-90
2023/01/29 07:35:53;;;;;;;23.73;21.40;;;9.50;99.90;;;;;;4904349;29;20040;-92
2023/01/29 07:38:19;;;;;;;23.45;21.38;;;9.70;99.90;;;;;;4905071;29;20502;-91
2023/01/29 07:40:46;;;;;;;22.92;20.85;;;9.60;99.90;;;;;;4904089;29;20079;-93
2023/01/29 07:43:14;;;;;;;22.73;20.92;;;9.60;99.90;;;;;;4888572;29;20072;-91
2023/01/29 07:45:42;;;;;;;23.70;21.40;;;9.60;99.90;;;;;;4904043;29;20122;-92
2023/01/29 07:48:11;;;;;;;22.40;20.60;;;9.80;99.90;;;;;;5014366;23;20149;-91
2023/01/29 07:50:42;;;;;;;23.30;21.50;;;9.90;99.90;;;;;;4974716;23;20051;-92
2023/01/29 07:53:15;;;;;;;24.27;22.08;;;9.90;99.90;;;;;;4961702;28;20027;-92
2023/01/29 07:55:45;;;;;;;23.40;21.30;;;10.00;99.90;;;;;;4961922;28;20035;-93
2023/01/29 07:58:12;;;;;;;21.98;20.23;;;10.00;99.90;;;;;;4964241;28;20503;-93
2023/01/29 08:04:03;;;;;;;22.02;20.23;;;10.10;99.90;;;;;;4994300;23;20047;-92
2023/01/29 08:06:30;;;;;;;21.75;19.85;;;10.10;99.90;;;;;;4961498;28;20073;-92
2023/01/29 08:08:56;;;;;;;21.65;19.60;;;10.20;99.90;;;;;;4961497;28;20393;-92
2023/01/29 08:11:23;;;;;;;21.17;19.45;;;10.30;99.90;;;;;;4961171;28;20022;-93
2023/01/29 08:13:49;;;;;;;22.00;19.85;;;10.30;99.90;;;;;;4960882;28;20027;-92
2023/01/29 08:16:16;;;;;;;21.33;19.35;;;10.40;99.90;;;;;;4961450;28;20043;-92
2023/01/29 08:18:47;;;;;;;22.67;20.30;;;10.60;99.90;;;;;;4961184;28;20027;-93
2023/01/29 08:21:15;;;;;;;21.30;19.50;;;10.80;99.90;;;;;;4963252;28;20412;-92
2023/01/29 08:23:41;;;;;;;21.80;19.80;;;11.00;99.90;;;;;;4961355;28;20034;-91
2023/01/29 08:26:08;;;;;;;21.77;19.50;;;10.90;99.90;;;;;;4961063;28;20054;-93
2023/01/29 08:28:38;;;;;;;20.83;18.92;;;11.10;99.90;;;;;;4961408;28;20074;-91
2023/01/29 08:31:15;;;;;;;21.88;19.95;;;11.00;99.90;;;;;;4959368;29;20469;-91
2023/01/29 08:33:42;;;;;;;20.95;19.10;;;11.00;99.90;;;;;;4959596;28;20055;-93
2023/01/29 08:36:09;;;;;;;21.45;19.25;;;11.10;99.90;;;;;;4957071;29;20050;-90
2023/01/29 08:38:35;;;;;;;21.45;19.70;;;11.10;99.90;;;;;;4957361;28;20035;-91
2023/01/29 08:41:02;;;;;;;20.90;19.10;;;11.10;99.90;;;;;;4959588;29;20027;-91
2023/01/29 08:43:29;;;;;;;21.10;19.20;;;11.10;99.90;;;;;;4956860;28;20054;-92
2023/01/29 08:45:55;;;;;;;21.75;19.92;;;11.20;99.90;;;;;;4957397;29;20087;-90
2023/01/29 08:48:22;;;;;;;22.60;20.52;;;11.20;99.90;;;;;;4958510;28;20028;-92
2023/01/29 08:50:49;;;;;;;21.95;19.80;;;11.20;99.90;;;;;;4960877;28;20027;-93
2023/01/29 08:53:17;;;;;;;22.63;20.55;;;11.20;99.90;;;;;;4957383;29;20027;-91
2023/01/29 08:55:45;;;;;;;23.70;21.52;;;11.30;99.90;;;;;;4957707;29;20039;-91
2023/01/29 08:58:12;;;;;;;23.10;21.20;;;11.50;99.90;;;;;;4941068;29;20397;-89
2023/01/29 09:00:39;;;;;;;24.10;22.20;;;11.50;99.90;;;;;;4957847;29;20058;-93
2023/01/29 09:03:06;;;;;;;23.88;21.77;;;11.40;99.90;;;;;;4957202;28;20047;-91
2023/01/29 09:05:36;;;;;;;24.33;22.45;;;11.40;99.90;;;;;;4957304;28;20493;-92
2023/01/29 09:08:06;;;;;;;24.30;22.33;;;11.50;99.90;;;;;;4959701;28;20042;-92
2023/01/29 09:10:49;;;;;;;23.63;21.83;;;11.40;99.90;;;;;;4961638;28;20035;-92
2023/01/29 09:13:25;;;;;;;23.33;21.05;;;11.50;99.90;;;;;;4963129;29;20035;-94
2023/01/29 09:15:58;;;;;;;22.15;20.35;;;11.50;99.90;;;;;;4946696;29;20043;-92
2023/01/29 09:18:25;;;;;;;22.90;21.08;;;11.60;99.90;;;;;;4958023;28;20024;-91
2023/01/29 09:22:02;;;;;;;23.52;21.30;;;11.70;99.90;;;;;;4964511;29;20031;-94
2023/01/29 09:24:40;;;;;;;23.25;21.05;;;11.70;99.90;;;;;;4875953;29;20128;-93
2023/01/29 09:27:27;;;;;;;23.40;21.15;;;12.00;99.90;;;;;;4933173;29;20055;-93
2023/01/29 09:30:12;;;;;;;24.25;22.27;;;12.30;99.90;;;;;;4931083;29;20051;-93
2023/01/29 09:32:39;;;;;;;24.98;22.75;;;12.40;99.90;;;;;;5042502;23;20050;-93
2023/01/29 09:42:34;;;;;;;26.73;24.38;;;12.40;99.90;;;;;;4961180;29;20043;-92
2023/01/29 09:45:18;;;;;;;22.45;20.52;;;12.20;99.90;;;;;;4922519;29;20028;-92
2023/01/29 09:47:50;;;;;;;20.02;18.38;;;12.40;99.90;;;;;;4934508;29;20040;-93
2023/01/29 09:50:44;;;;;;;18.83;17.30;;;12.70;99.90;;;;;;4919846;29;20096;-92
2023/01/29 09:53:50;;;;;;;19.00;17.80;;;12.50;99.90;;;;;;4903722;29;20127;-91
2023/01/29 09:56:21;;;;;;;19.48;17.95;;;12.30;99.90;;;;;;4849577;29;20113;-93
2023/01/29 09:58:48;;;;;;;20.00;18.45;;;12.30;99.90;;;;;;4879830;29;20037;-93
2023/01/29 10:01:50;;;;;;;20.10;18.35;;;12.50;99.90;;;;;;4866444;29;20123;-91
2023/01/29 10:04:46;;;;;;;19.83;18.33;;;12.60;99.90;;;;;;4864305;29;20056;-92
2023/01/29 10:07:31;;;;;;;20.10;18.67;;;12.70;99.90;;;;;;4865761;29;20048;-91
2023/01/29 10:10:07;;;;;;;21.38;19.85;;;12.60;99.90;;;;;;4865617;29;20469;-91
2023/01/29 10:12:58;;;;;;;20.65;19.30;;;12.60;99.90;;;;;;4864734;29;20041;-93
2023/01/29 10:15:40;;;;;;;20.95;19.27;;;12.70;99.90;;;;;;4864642;29;20089;-93
2023/01/29 10:18:37;;;;;;;21.25;19.48;;;12.80;99.90;;;;;;4865843;29;20048;-91
2023/01/29 10:21:43;;;;;;;20.58;19.27;;;12.80;99.90;;;;;;4866734;29;20041;-91
2023/01/29 10:24:31;;;;;;;20.98;19.45;;;12.60;99.90;;;;;;4859962;29;20569;-92
2023/01/29 10:26:58;;;;;;;21.20;19.60;;;12.50;99.90;;;;;;4845221;29;20030;-92
2023/01/29 10:29:34;;;;;;;21.27;19.83;;;12.60;99.90;;;;;;4845119;29;20057;-91
2023/01/29 10:32:04;;;;;;;19.90;18.60;;;12.70;99.90;;;;;;4876798;29;20036;-92
2023/01/29 10:34:41;;;;;;;21.40;19.70;;;12.60;99.90;;;;;;4902724;29;20032;-92
2023/01/29 10:37:23;;;;;;;21.00;19.55;;;12.50;99.90;;;;;;4902403;29;20050;-92
2023/01/29 10:39:50;;;;;;;20.50;18.98;;;12.40;99.90;;;;;;4904413;29;20110;-92
2023/01/29 10:42:43;;;;;;;21.02;19.52;;;12.50;99.90;;;;;;4937339;29;20032;-92
2023/01/29 10:45:20;;;;;;;20.88;19.33;;;12.70;99.90;;;;;;4936894;29;20046;-92
2023/01/29 10:48:06;;;;;;;19.80;18.50;;;12.70;99.90;;;;;;4953686;29;20031;-92
2023/01/29 10:50:42;;;;;;;21.42;19.75;;;12.70;99.90;;;;;;4920321;29;20032;-91
2023/01/29 10:53:56;;;;;;;26.75;24.23;;;12.60;99.90;;;;;;4935675;29;20032;-91
2023/01/29 10:57:15;;;;;;;26.88;24.17;;;12.60;99.90;;;;;;4896932;29;20540;-92
2023/01/29 10:59:56;;;;;;;21.77;20.20;;;12.50;99.90;;;;;;4897115;29;20047;-92
2023/01/29 11:02:26;;;;;;;25.30;23.00;;;12.60;99.90;;;;;;4920208;29;20040;-93
2023/01/29 11:05:25;;;;;;;22.58;20.70;;;12.50;99.90;;;;;;4922157;29;20032;-93
2023/01/29 11:12:04;;;;;;;21.48;19.75;;;12.50;99.90;;;;;;4882994;29;20064;-91
2023/01/29 11:14:47;;;;;;;22.00;20.20;;;12.70;99.90;;;;;;4864184;29;20041;-90
2023/01/29 11:17:19;;;;;;;20.60;19.20;;;12.50;99.90;;;;;;4864347;29;20049;-92
2023/01/29 11:19:50;;;;;;;23.05;21.13;;;12.40;99.90;;;;;;4848507;29;20025;-91
2023/01/29 11:22:19;;;;;;;25.75;23.67;;;12.20;99.90;;;;;;5026671;23;20054;-91
2023/01/29 11:25:05;;;;;;;22.40;20.50;;;12.00;99.90;;;;;;4965470;28;20116;-90
2023/01/29 11:27:34;;;;;;;24.02;22.20;;;11.90;99.90;;;;;;4965532;28;20057;-88
2023/01/29 11:30:01;;;;;;;23.70;21.67;;;11.70;99.90;;;;;;4965532;28;20027;-92
2023/01/29 11:32:33;;;;;;;22.02;20.23;;;11.60;99.90;;;;;;4958809;28;20392;-92
2023/01/29 11:35:15;;;;;;;23.70;21.80;;;11.50;99.90;;;;;;4966055;28;20069;-92
2023/01/29 11:37:44;;;;;;;48.28;34.95;;;11.70;99.90;;;;;;4964256;28;20034;-92
2023/01/29 11:40:23;;;;;;;33.33;29.48;;;12.00;99.90;;;;;;4964620;28;20101;-90
2023/01/29 11:42:53;;;;;;;23.80;21.63;;;12.30;99.90;;;;;;4964591;28;20042;-91
2023/01/29 11:45:19;;;;;;;29.23;26.33;;;12.20;99.90;;;;;;4964482;28;20125;-91
2023/01/29 11:48:05;;;;;;;23.60;21.75;;;12.20;99.90;;;;;;4964997;28;20391;-92
2023/01/29 11:50:35;;;;;;;21.90;20.30;;;12.20;99.90;;;;;;4964713;28;20061;-91
2023/01/29 11:53:37;;;;;;;22.88;21.08;;;12.30;99.90;;;;;;4962713;28;20023;-94
2023/01/29 11:56:22;;;;;;;22.35;20.55;;;12.20;99.90;;;;;;4944901;28;20129;-91
2023/01/29 11:58:50;;;;;;;21.83;20.13;;;12.40;99.90;;;;;;4945225;28;20023;-91
2023/01/29 12:01:29;;;;;;;22.30;20.60;;;12.50;99.90;;;;;;4949655;28;20070;-91
2023/01/29 12:03:56;;;;;;;22.67;21.05;;;12.60;99.90;;;;;;4960630;28;20027;-89
2023/01/29 12:06:30;;;;;;;21.52;20.02;;;12.50;99.90;;;;;;4961276;28;20031;-89
2023/01/29 12:09:01;;;;;;;23.13;21.15;;;12.50;99.90;;;;;;4966819;28;20057;-91
2023/01/29 12:11:31;;;;;;;22.05;20.55;;;12.70;99.90;;;;;;4957053;28;20050;-92
2023/01/29 12:14:00;;;;;;;22.48;20.67;;;12.90;99.90;;;;;;4945122;28;20031;-93
2023/01/29 12:16:56;;;;;;;21.98;20.33;;;12.80;99.90;;;;;;4945554;28;20042;-92
2023/01/29 12:19:41;;;;;;;21.75;20.17;;;12.70;99.90;;;;;;4961349;28;20039;-94
2023/01/29 12:22:33;;;;;;;22.08;20.48;;;12.20;99.90;;;;;;4962085;28;20050;-94
2023/01/29 12:25:06;;;;;;;22.05;20.55;;;11.90;99.90;;;;;;4945423;28;20488;-94
2023/01/29 12:27:49;;;;;;;22.67;20.95;;;11.80;99.90;;;;;;4960748;28;20041;-92
2023/01/29 12:30:27;;;;;;;25.02;23.00;;;11.90;99.90;;;;;;4944865;28;20035;-94
2023/01/29 12:33:14;;;;;;;22.95;21.45;;;12.10;99.90;;;;;;4944709;28;20023;-93
2023/01/29 12:36:07;;;;;;;26.83;24.52;;;12.20;99.90;;;;;;4944984;28;20453;-92
2023/01/29 12:38:35;;;;;;;23.67;22.08;;;12.20;99.90;;;;;;4960599;28;20037;-92
2023/01/29 12:41:23;;;;;;;23.52;22.02;;;12.20;99.90;;;;;;4944693;28;20031;-91
2023/01/29 12:43:55;;;;;;;22.45;21.15;;;12.20;99.90;;;;;;4944735;28;20035;-91
2023/01/29 12:46:26;;;;;;;25.35;23.35;;;12.20;99.90;;;;;;4944388;28;20046;-93
2023/01/29 12:48:57;;;;;;;22.65;21.20;;;12.20;99.90;;;;;;4944598;28;20031;-89
2023/01/29 12:51:41;;;;;;;22.77;21.30;;;12.10;99.90;;;;;;4944401;28;20091;-90
2023/01/29 12:54:44;;;;;;;23.30;21.85;;;12.10;99.90;;;;;;4960334;28;20101;-92
2023/01/29 12:57:42;;;;;;;23.02;21.33;;;11.90;99.90;;;;;;4971074;28;20093;-93
2023/01/29 13:00:17;;;;;;;22.42;21.13;;;11.90;99.90;;;;;;4944397;28;20038;-93
2023/01/29 13:02:58;;;;;;;22.65;21.23;;;11.90;99.90;;;;;;4921445;29;20039;-92
2023/01/29 13:05:35;;;;;;;22.67;21.27;;;11.90;99.90;;;;;;4921446;29;20151;-89
2023/01/29 13:08:09;;;;;;;23.40;21.60;;;11.90;99.90;;;;;;4905601;29;20036;-92
2023/01/29 13:10:41;;;;;;;23.73;21.98;;;11.90;99.90;;;;;;4920946;29;20040;-94
2023/01/29 13:13:25;;;;;;;24.25;22.50;;;11.90;99.90;;;;;;4921375;29;20139;-91
2023/01/29 13:15:55;;;;;;;23.25;21.65;;;12.00;99.90;;;;;;4921030;29;20040;-92
2023/01/29 13:18:40;;;;;;;24.02;22.10;;;11.90;99.90;;;;;;4922657;29;20032;-92
2023/01/29 13:21:13;;;;;;;23.00;21.50;;;11.80;99.90;;;;;;4908220;29;20056;-92
2023/01/29 13:23:49;;;;;;;23.38;21.77;;;11.80;99.90;;;;;;4924578;29;20131;-91
2023/01/29 13:26:20;;;;;;;22.80;21.17;;;11.80;99.90;;;;;;4907679;29;20063;-91
2023/01/29 13:28:48;;;;;;;22.35;20.85;;;11.70;99.90;;;;;;4923819;29;20036;-93
2023/01/29 13:31:17;;;;;;;22.15;20.75;;;11.70;99.90;;;;;;4923186;29;20028;-91
2023/01/29 13:34:11;;;;;;;22.45;20.95;;;11.60;99.90;;;;;;4926976;28;20031;-92
2023/01/29 13:36:49;;;;;;;22.52;21.02;;;11.70;99.90;;;;;;4922303;29;20525;-92
2023/01/29 13:39:28;;;;;;;23.58;21.75;;;11.80;99.90;;;;;;4908140;29;20063;-92
2023/01/29 13:41:56;;;;;;;22.70;21.10;;;11.80;99.90;;;;;;4924940;29;20063;-91
2023/01/29 13:44:33;;;;;;;22.70;21.05;;;11.70;99.90;;;;;;4908069;29;20035;-92
2023/01/29 13:47:09;;;;;;;22.90;21.40;;;11.70;99.90;;;;;;4924209;29;20035;-92
2023/01/29 13:49:57;;;;;;;22.83;21.25;;;11.70;99.90;;;;;;4924074;29;20032;-93
2023/01/29 13:52:43;;;;;;;22.80;21.30;;;11.50;99.90;;;;;;4917528;29;20059;-92
2023/01/29 13:55:27;;;;;;;22.98;21.48;;;11.40;99.90;;;;;;4904566;29;20051;-91
2023/01/29 13:57:56;;;;;;;23.58;21.77;;;11.40;99.90;;;;;;4904130;29;20067;-90
2023/01/29 14:00:29;;;;;;;28.17;25.27;;;11.30;99.90;;;;;;4905184;29;20722;-91
2023/01/29 14:03:10;;;;;;;26.38;24.27;;;11.30;99.90;;;;;;4905597;29;20106;-90
2023/01/29 14:05:41;;;;;;;24.17;22.42;;;11.30;99.90;;;;;;4904854;29;20303;-90
2023/01/29 14:08:14;;;;;;;55.65;39.05;;;11.20;99.90;;;;;;4933201;28;20047;-91
2023/01/29 14:10:42;;;;;;;30.42;27.33;;;11.30;99.90;;;;;;4950432;28;20030;-91
2023/01/29 14:13:17;;;;;;;24.80;22.70;;;11.30;99.90;;;;;;4962807;28;20027;-90
2023/01/29 14:16:05;;;;;;;25.17;23.08;;;11.20;99.90;;;;;;4962348;28;20034;-91
2023/01/29 14:18:34;;;;;;;24.30;22.50;;;11.10;99.90;;;;;;4962186;28;20034;-89
2023/01/29 14:21:06;;;;;;;24.98;22.80;;;11.10;99.90;;;;;;4962830;28;20404;-89
2023/01/29 14:23:46;;;;;;;24.50;22.80;;;11.00;99.90;;;;;;4969130;28;20038;-91
2023/01/29 14:26:34;;;;;;;24.17;22.42;;;11.00;99.90;;;;;;4971627;28;20031;-92
2023/01/29 14:29:30;;;;;;;29.10;25.65;;;11.00;99.90;;;;;;5000892;28;20042;-89
2023/01/29 14:32:21;;;;;;;25.42;23.23;;;11.00;99.90;;;;;;4967438;28;20573;-83
2023/01/29 14:35:08;;;;;;;23.50;21.65;;;11.00;99.90;;;;;;4963128;28;20027;-84
2023/01/29 14:37:40;;;;;;;30.65;27.75;;;11.00;99.90;;;;;;4969660;28;20042;-83
2023/01/29 14:40:23;;;;;;;26.02;23.48;;;10.90;99.90;;;;;;4970204;28;20026;-88
2023/01/29 14:42:59;;;;;;;24.98;22.80;;;10.90;99.90;;;;;;4988744;28;20061;-85
2023/01/29 14:45:32;;;;;;;27.25;24.65;;;10.90;99.90;;;;;;4963201;28;20041;-86
2023/01/29 14:48:53;;;;;;;36.63;31.88;;;10.80;99.90;;;;;;4967637;28;20093;-92
2023/01/29 14:51:35;;;;;;;26.95;24.58;;;10.80;99.90;;;;;;4895716;29;20072;-92
2023/01/29 14:54:43;;;;;;;;;;;;;;;;;;;;;
2023/01/29 14:57:19;;;;;;;22.55;20.92;;;10.70;99.90;;;;;;4854337;29;20154;-92
2023/01/29 14:59:54;;;;;;;23.23;21.42;;;10.60;99.90;;;;;;4855335;29;20037;-92
2023/01/29 16:56:29;;;;;;;38.88;33.78;;;9.00;99.90;;;;;;5848078;23;20050;-89
2023/01/29 16:58:56;;;;;;;42.13;36.35;;;8.90;99.90;;;;;;4963325;28;20030;-89
2023/01/29 17:01:25;;;;;;;35.55;32.03;;;8.90;99.90;;;;;;4963432;28;20057;-90
2023/01/29 17:04:03;;;;;;;44.97;37.13;;;8.90;99.90;;;;;;4963109;28;20057;-90
2023/01/29 17:06:31;;;;;;;55.65;40.97;;;8.80;99.90;;;;;;4960994;28;20027;-91
2023/01/29 17:08:58;;;;;;;46.25;35.75;;;8.80;99.90;;;;;;4959678;28;20035;-89
2023/01/29 17:11:32;;;;;;;32.90;29.75;;;8.80;99.90;;;;;;4943614;28;20176;-91
2023/01/29 17:13:59;;;;;;;38.95;34.67;;;8.80;99.90;;;;;;4943703;28;20058;-90
2023/01/29 17:16:31;;;;;;;33.95;30.63;;;8.70;99.90;;;;;;4943565;28;20415;-90
2023/01/29 17:18:59;;;;;;;36.63;31.75;;;8.70;99.90;;;;;;4959624;28;20034;-89
2023/01/29 17:21:25;;;;;;;35.00;30.92;;;8.70;99.90;;;;;;4959019;28;20029;-88
2023/01/29 17:23:52;;;;;;;33.05;29.58;;;8.70;99.90;;;;;;4959423;28;20030;-87
2023/01/29 17:26:19;;;;;;;34.55;31.02;;;8.60;99.90;;;;;;4943567;28;20037;-88
2023/01/29 17:28:49;;;;;;;37.15;32.53;;;8.60;99.90;;;;;;4943506;28;20030;-91
2023/01/29 17:31:15;;;;;;;31.80;28.63;;;8.50;99.90;;;;;;4959115;28;20027;-89
2023/01/29 17:33:43;;;;;;;34.03;30.52;;;8.50;99.90;;;;;;4959864;28;20488;-89
2023/01/29 17:36:14;;;;;;;43.72;35.17;;;8.50;99.90;;;;;;4942047;28;20050;-90
2023/01/29 17:38:41;;;;;;;56.60;36.63;;;8.40;99.90;;;;;;4955872;29;20069;-89
2023/01/29 17:41:25;;;;;;;48.97;34.08;;;8.30;99.90;;;;;;4955933;29;20078;-90
2023/01/29 17:43:51;;;;;;;51.25;38.72;;;8.30;99.90;;;;;;4954300;28;20066;-90
2023/01/29 17:46:18;;;;;;;38.53;32.03;;;8.30;99.90;;;;;;4955710;29;20039;-89
2023/01/29 17:48:45;;;;;;;33.22;29.70;;;8.30;99.90;;;;;;4939814;29;20035;-89
2023/01/29 17:51:13;;;;;;;35.47;31.27;;;8.20;99.90;;;;;;4939847;29;20165;-89
2023/01/29 17:53:41;;;;;;;51.80;37.95;;;8.20;99.90;;;;;;4949559;28;20035;-88
2023/01/29 17:56:28;;;;;;;41.70;34.97;;;8.20;99.90;;;;;;4960026;28;20061;-89
2023/01/29 17:58:55;;;;;;;39.58;33.63;;;8.20;99.90;;;;;;4953790;28;20054;-89
2023/01/29 18:01:27;;;;;;;40.15;30.35;;;8.10;99.90;;;;;;4958754;28;20049;-91
2023/01/29 18:03:58;;;;;;;33.72;29.42;;;8.10;99.90;;;;;;4959278;28;20118;-91
2023/01/29 18:06:27;;;;;;;33.33;29.73;;;8.10;99.90;;;;;;4927390;28;20035;-90
2023/01/29 18:08:55;;;;;;;41.22;31.98;;;8.10;99.90;;;;;;4958526;28;20065;-90
2023/01/29 18:11:22;;;;;;;37.50;29.20;;;8.10;99.90;;;;;;4958347;28;20492;-90
2023/01/29 18:13:48;;;;;;;39.22;31.15;;;8.10;99.90;;;;;;4958471;28;20037;-88
2023/01/29 18:16:17;;;;;;;35.45;30.60;;;8.10;99.90;;;;;;4957618;28;20049;-88
2023/01/29 18:18:43;;;;;;;41.20;31.73;;;8.10;99.90;;;;;;4958553;28;20023;-88
2023/01/29 18:21:09;;;;;;;43.67;34.00;;;8.10;99.90;;;;;;4954928;29;20051;-89
2023/01/29 18:23:36;;;;;;;58.53;43.85;;;8.10;99.90;;;;;;4964108;28;20042;-88
2023/01/29 18:26:03;;;;;;;66.03;48.38;;;8.10;99.90;;;;;;4958452;28;20038;-88
2023/01/29 18:28:30;;;;;;;38.50;32.45;;;8.00;99.90;;;;;;4958428;28;20027;-89
2023/01/29 18:30:56;;;;;;;43.10;33.80;;;8.00;99.90;;;;;;4958403;28;20524;-90
2023/01/29 18:33:24;;;;;;;37.38;30.30;;;7.90;99.90;;;;;;4958257;28;20061;-88
2023/01/29 18:35:53;;;;;;;34.10;29.10;;;7.90;99.90;;;;;;4958132;28;20125;-88
2023/01/29 18:38:20;;;;;;;35.13;27.73;;;7.80;99.90;;;;;;4958346;28;20027;-88
2023/01/29 18:40:47;;;;;;;40.40;29.10;;;7.70;99.90;;;;;;4942281;28;20034;-88
2023/01/29 18:43:13;;;;;;;32.72;26.55;;;7.70;99.90;;;;;;4958124;28;20089;-88
2023/01/29 18:45:40;;;;;;;34.75;29.65;;;7.70;99.90;;;;;;4958351;28;20113;-89
2023/01/29 18:48:07;;;;;;;33.55;27.67;;;7.70;99.90;;;;;;4958012;28;20026;-88
2023/01/29 18:50:35;;;;;;;37.83;28.50;;;7.60;99.90;;;;;;4958252;28;20038;-88
2023/01/29 18:53:03;;;;;;;40.15;29.38;;;7.70;99.90;;;;;;4958789;28;20500;-88
2023/01/29 18:55:29;;;;;;;39.15;29.52;;;7.70;99.90;;;;;;4958275;28;20031;-88
2023/01/29 18:57:56;;;;;;;48.22;35.08;;;7.70;99.90;;;;;;4955147;28;20047;-89
2023/01/29 19:00:23;;;;;;;52.35;37.22;;;7.70;99.90;;;;;;4939048;29;20030;-89
2023/01/29 19:02:49;;;;;;;39.67;31.20;;;7.70;99.90;;;;;;4939076;29;20039;-88
2023/01/29 19:05:20;;;;;;;40.00;30.75;;;7.70;99.90;;;;;;4954916;29;20118;-89
2023/01/29 19:07:46;;;;;;;40.97;33.08;;;7.70;99.90;;;;;;4938993;29;20031;-89
2023/01/29 19:10:15;;;;;;;41.22;31.00;;;7.70;99.90;;;;;;4938995;29;20023;-91
2023/01/29 19:12:42;;;;;;;37.13;29.25;;;7.70;99.90;;;;;;4954786;29;20114;-90
2023/01/29 19:15:11;;;;;;;55.78;37.42;;;7.80;99.90;;;;;;4940035;29;20054;-90
2023/01/29 19:17:38;;;;;;;40.17;30.80;;;7.80;99.90;;;;;;4939025;29;20032;-90
2023/01/29 19:20:05;;;;;;;41.63;33.70;;;7.80;99.90;;;;;;4938809;29;20027;-89
2023/01/29 19:22:32;;;;;;;37.30;30.50;;;7.80;99.90;;;;;;4938870;29;20038;-90
2023/01/29 19:24:58;;;;;;;43.00;33.50;;;7.80;99.90;;;;;;4939273;29;20027;-88
2023/01/29 19:27:29;;;;;;;32.30;28.15;;;7.80;99.90;;;;;;4955699;28;20113;-90
2023/01/29 19:29:56;;;;;;;35.50;28.42;;;7.80;99.90;;;;;;4942670;29;20051;-88
2023/01/29 19:32:24;;;;;;;45.58;31.95;;;7.80;99.90;;;;;;4942680;29;20505;-89
2023/01/29 19:34:50;;;;;;;42.97;30.30;;;7.70;99.90;;;;;;4942449;29;20077;-90
2023/01/29 19:37:17;;;;;;;52.97;35.55;;;7.70;99.90;;;;;;4957966;29;20063;-88
2023/01/29 19:39:43;;;;;;;44.17;30.67;;;7.70;99.90;;;;;;4958197;29;20039;-89
2023/01/29 19:42:09;;;;;;;41.92;31.08;;;7.70;99.90;;;;;;4952369;29;20028;-89
2023/01/29 19:44:37;;;;;;;42.92;32.13;;;7.70;99.90;;;;;;4957989;29;20118;-88
2023/01/29 19:47:04;;;;;;;35.15;30.00;;;7.70;99.90;;;;;;4958587;29;20470;-93
2023/01/29 19:49:32;;;;;;;40.90;29.83;;;7.60;99.90;;;;;;4939772;29;20047;-88
2023/01/29 19:52:03;;;;;;;51.03;35.03;;;7.60;99.90;;;;;;4939146;29;20401;-89
2023/01/29 19:54:30;;;;;;;50.70;33.58;;;7.60;99.90;;;;;;4954862;29;20032;-92
2023/01/29 19:56:57;;;;;;;50.85;33.88;;;7.60;99.90;;;;;;4938974;29;20052;-91
2023/01/29 19:59:23;;;;;;;44.80;34.60;;;7.70;99.90;;;;;;4955211;29;20038;-90
2023/01/29 20:01:50;;;;;;;38.22;29.95;;;7.70;99.90;;;;;;4939113;29;20134;-90
2023/01/29 20:04:16;;;;;;;46.90;34.92;;;7.70;99.90;;;;;;4925643;29;20071;-91
2023/01/29 20:06:44;;;;;;;45.45;32.33;;;7.70;99.90;;;;;;4954492;29;20047;-90
2023/01/29 20:09:10;;;;;;;38.00;29.23;;;7.70;99.90;;;;;;4939156;29;20032;-90
2023/01/29 20:11:37;;;;;;;35.20;28.73;;;7.70;99.90;;;;;;4939248;29;20024;-90
2023/01/29 20:14:03;;;;;;;50.97;35.45;;;7.70;99.90;;;;;;4955076;29;20028;-93
2023/01/29 20:16:30;;;;;;;33.55;28.77;;;7.70;99.90;;;;;;4938773;29;20556;-90
2023/01/29 20:18:56;;;;;;;42.42;32.40;;;7.70;99.90;;;;;;4935578;29;20135;-89
2023/01/29 20:21:23;;;;;;;28.58;25.63;;;7.80;99.90;;;;;;4922711;29;20521;-89
2023/01/29 20:23:50;;;;;;;38.58;30.70;;;7.70;99.90;;;;;;4922726;29;20043;-91
2023/01/29 20:26:19;;;;;;;37.03;28.83;;;7.80;99.90;;;;;;4921730;29;20039;-89
2023/01/29 20:28:47;;;;;;;32.10;27.58;;;7.70;99.90;;;;;;4925259;29;20036;-91
2023/01/29 20:31:14;;;;;;;31.25;27.40;;;7.70;99.90;;;;;;4904490;29;20474;-92
2023/01/29 20:33:41;;;;;;;43.40;31.85;;;7.80;99.90;;;;;;4903283;29;20221;-89
2023/01/29 20:36:09;;;;;;;41.88;32.35;;;7.80;99.90;;;;;;4910301;29;20638;-91
2023/01/29 20:38:36;;;;;;;34.30;29.25;;;7.80;99.90;;;;;;4921567;29;20039;-91
2023/01/29 20:41:10;;;;;;;31.10;27.77;;;7.80;99.90;;;;;;4923869;29;20038;-91
2023/01/29 20:43:36;;;;;;;39.47;29.53;;;7.70;99.90;;;;;;4922892;29;20032;-90
2023/01/29 20:46:03;;;;;;;33.33;29.15;;;7.70;99.90;;;;;;4921562;29;20275;-89
2023/01/29 20:48:30;;;;;;;34.83;28.92;;;7.70;99.90;;;;;;4922970;29;20035;-90
2023/01/29 20:51:08;;;;;;;35.17;29.38;;;7.70;99.90;;;;;;4938149;29;20409;-90
2023/01/29 20:53:35;;;;;;;35.92;28.45;;;7.60;99.90;;;;;;4938814;29;20047;-91
2023/01/29 20:56:02;;;;;;;30.02;26.80;;;7.60;99.90;;;;;;4921432;29;20066;-91
2023/01/29 20:58:29;;;;;;;32.08;28.50;;;7.60;99.90;;;;;;4925660;29;20061;-90
2023/01/29 21:00:55;;;;;;;34.95;28.17;;;7.60;99.90;;;;;;4926346;29;20569;-91
2023/01/29 21:03:22;;;;;;;36.53;28.48;;;7.60;99.90;;;;;;4925828;29;20019;-90
2023/01/29 21:05:50;;;;;;;33.75;27.83;;;7.60;99.90;;;;;;4925167;29;20082;-91
2023/01/29 21:08:16;;;;;;;32.33;27.17;;;7.60;99.90;;;;;;4924880;29;20508;-91
2023/01/29 21:10:44;;;;;;;37.85;27.33;;;7.60;99.90;;;;;;4924925;29;20031;-90
2023/01/29 21:13:11;;;;;;;37.13;28.67;;;7.60;99.90;;;;;;4924967;29;20039;-90